• Join FlightAware (Why Join?)
  • Login
  • US Flag 
02:45PM EDT


 

Airport Tracker/Info


-or-


 

Live Flight TrackerFlight Track Log ✈ TMC875 ✈ 26-Apr-2013 ✈ KBTV - KHTO

Flight Track Log - Related Links

Times and Time Zones

All times are in EDT time to prevent confusion due to time zone crossing. See the TMC875 flight status page for this flight to view local times or setup timezone preferences in your user account.

Time Position Orientation Groundspeed Altitude Reporting Facility
EDT Latitude Longitude Course Direction KTS MPH feet Rate Location/Type
03:19PM 44.5356 -73.2467 172° South 207 238 7,000  Level Boston Center
03:20PM 44.5247 -73.3253 259° West 212 244 11,600 3,780 Climbing Boston Center
03:21PM 44.4539 -73.3039 168° South 180 207 14,600 3,180 Climbing Boston Center
03:22PM 44.3708 -73.2822 169° South 246 283 18,000 2,700 Climbing Boston Center
03:23PM 44.2792 -73.2606 170° South 308 354 20,000 960 Climbing Boston Center
03:24PM 43.9701 -73.0473 172° South  Level FlightAware Approximate
03:24PM 44.1753 -73.2331 169° South 363 418 20,000  Level Boston Center
03:25PM 44.0692 -73.2058 170° South 386 444 20,000  Level Boston Center
03:26PM 43.9528 -73.1783 170° South 391 450 20,000  Level Boston Center
03:27PM 43.8467 -73.1511 170° South 391 450 20,000  Level Boston Center
03:28PM 43.7383 -73.1239 170° South 391 450 20,000  Level Boston Center
03:29PM 43.6406 -73.1000 170° South 397 457 20,000  Level Boston Center
03:30PM 43.5344 -73.0731 170° South 397 457 20,000  Level Boston Center
03:31PM 43.4261 -73.0489 171° South 392 451 20,000  Level Boston Center
03:32PM 43.3117 -73.0194 169° South 392 451 20,000  Level Boston Center
03:33PM 43.2036 -72.9928 170° South 392 451 20,000  Level Boston Center
03:34PM 43.1036 -72.9689 170° South 392 451 20,000  Level Boston Center
03:35PM 42.9767 -72.9394 170° South 392 451 20,000  Level Boston Center
03:36PM 42.8600 -72.9017 167° South 392 451 20,000  Level Boston Center
03:37PM 42.7539 -72.8783 171° South 392 451 20,000  Level Boston Center
03:38PM 42.6456 -72.8522 170° South 392 451 20,000  Level Boston Center
03:39PM 42.5414 -72.8261 170° South 392 451 20,000  Level Boston Center
03:40PM 42.4394 -72.7747 160° South 392 451 20,000  Level Boston Center
03:41PM 42.3458 -72.6900 146° Southeast 392 451 20,000  Level Boston Center
03:42PM 42.2606 -72.6197 149° Southeast 397 457 20,000  Level Boston Center
03:43PM 42.1650 -72.5353 147° Southeast 402 463 20,000  Level Boston Center
03:44PM 42.0711 -72.4514 146° Southeast 408 470 20,000 -600 Level Boston Center
03:45PM 41.9711 -72.3619 146° Southeast 408 470 18,800 -1,440 Descending Boston Center
03:46PM 41.8814 -72.2839 147° Southeast 392 451 17,200 -2,100 Descending Boston Center
03:47PM 41.8019 -72.2144 147° Southeast 386 444 14,600 -2,880 Descending Boston Center
03:48PM 41.7206 -72.1453 148° Southeast 354 407 11,700 -2,040 Descending Boston Center
03:49PM 41.6392 -72.0733 147° Southeast 328 377 10,800 -1,080 Descending Boston Center
03:50PM 41.5742 -72.0072 143° Southeast 305 351 9,500 -1,860 Descending Boston Center
03:51PM 41.5303 -71.9217 124° Southeast 274 315 7,000 -1,800 Descending Boston Center
03:52PM 41.4697 -71.9000 165° South 227 261 6,000 -540 Descending Boston Center
03:53PM 41.4094 -71.9447 209° Southwest 221 254 6,000  Level Boston Center
03:53PM 41.3906 -71.9558 204° Southwest 246 283 6,000  Level Boston Center
03:54PM 41.3492 -71.9867 209° Southwest 237 273 6,000  Level Boston Center
03:55PM 41.2908 -72.0311 210° Southwest 248 285 6,000 -360 Level Boston Center
03:56PM 41.2264 -72.0703 205° Southwest 253 291 5,300 -1,200 Descending Boston Center
03:57PM 41.1703 -72.1092 208° Southwest 253 291 3,600 -1,200 Descending Boston Center
03:58PM 41.1183 -72.1481 209° Southwest 240 276 2,900 -720 Descending Boston Center
03:59PM 41.0683 -72.1842 209° Southwest 220 253 2,200 -780 Descending Boston Center
04:00PM 41.0206 -72.2117 203° Southwest 206 237 1,400 -420 Descending Boston Center
04:02PM 40.9833 -72.2833 235° Southwest 158 182 1,200 -120 Descending New York TRACON
04:04PM 40.9594 -72.2517 208° Southwest  Level Estimated
04:11PM 40.9594 -72.2517 208° Southwest  Level Estimated
04:12PM 40.9594 -72.2517 208° Southwest  Level Estimated